sensor_id;sensor_type;location;lat;lon;timestamp;temperature;humidity
24426;DHT22;12611;44.446;26.000;2023-07-08T00:00:28;23.70;93.40
24426;DHT22;12611;44.446;26.000;2023-07-08T00:02:58;23.70;93.20
24426;DHT22;12611;44.446;26.000;2023-07-08T00:05:27;23.70;93.10
24426;DHT22;12611;44.446;26.000;2023-07-08T00:07:55;23.70;93.00
24426;DHT22;12611;44.446;26.000;2023-07-08T00:10:26;23.70;93.00
24426;DHT22;12611;44.446;26.000;2023-07-08T00:12:56;23.70;93.00
24426;DHT22;12611;44.446;26.000;2023-07-08T00:15:28;23.70;92.80
24426;DHT22;12611;44.446;26.000;2023-07-08T00:17:58;23.70;92.80
24426;DHT22;12611;44.446;26.000;2023-07-08T00:20:38;23.70;92.80
24426;DHT22;12611;44.446;26.000;2023-07-08T00:23:08;23.70;92.90
24426;DHT22;12611;44.446;26.000;2023-07-08T00:25:37;23.70;92.90
24426;DHT22;12611;44.446;26.000;2023-07-08T00:28:09;23.70;92.80
24426;DHT22;12611;44.446;26.000;2023-07-08T00:30:38;23.70;92.70
24426;DHT22;12611;44.446;26.000;2023-07-08T00:33:08;23.80;92.70
24426;DHT22;12611;44.446;26.000;2023-07-08T00:35:38;23.80;92.90
24426;DHT22;12611;44.446;26.000;2023-07-08T00:38:13;23.70;93.00
24426;DHT22;12611;44.446;26.000;2023-07-08T00:40:50;23.70;93.30
24426;DHT22;12611;44.446;26.000;2023-07-08T00:43:23;23.70;93.20
24426;DHT22;12611;44.446;26.000;2023-07-08T00:46:01;23.70;93.30
24426;DHT22;12611;44.446;26.000;2023-07-08T00:48:34;23.70;93.60
24426;DHT22;12611;44.446;26.000;2023-07-08T00:51:06;23.70;93.60
24426;DHT22;12611;44.446;26.000;2023-07-08T00:53:36;23.70;93.50
24426;DHT22;12611;44.446;26.000;2023-07-08T00:56:08;23.70;93.40
24426;DHT22;12611;44.446;26.000;2023-07-08T00:58:41;23.70;93.40
24426;DHT22;12611;44.446;26.000;2023-07-08T01:01:11;23.80;93.50
24426;DHT22;12611;44.446;26.000;2023-07-08T01:03:47;23.80;93.50
24426;DHT22;12611;44.446;26.000;2023-07-08T01:06:18;23.80;93.40
24426;DHT22;12611;44.446;26.000;2023-07-08T01:08:49;23.80;93.50
24426;DHT22;12611;44.446;26.000;2023-07-08T01:11:20;23.80;93.50
24426;DHT22;12611;44.446;26.000;2023-07-08T01:13:50;23.80;93.60
24426;DHT22;12611;44.446;26.000;2023-07-08T01:16:21;23.80;93.60
24426;DHT22;12611;44.446;26.000;2023-07-08T01:18:52;23.80;93.50
24426;DHT22;12611;44.446;26.000;2023-07-08T01:21:31;23.80;93.40
24426;DHT22;12611;44.446;26.000;2023-07-08T01:24:03;23.90;93.30
24426;DHT22;12611;44.446;26.000;2023-07-08T01:26:34;23.90;93.30
24426;DHT22;12611;44.446;26.000;2023-07-08T01:29:04;23.90;93.30
24426;DHT22;12611;44.446;26.000;2023-07-08T01:31:35;23.80;93.40
24426;DHT22;12611;44.446;26.000;2023-07-08T01:34:04;23.90;93.40
24426;DHT22;12611;44.446;26.000;2023-07-08T01:36:36;23.90;93.30
24426;DHT22;12611;44.446;26.000;2023-07-08T01:39:11;23.80;93.40
24426;DHT22;12611;44.446;26.000;2023-07-08T01:41:40;23.90;93.30
24426;DHT22;12611;44.446;26.000;2023-07-08T01:44:21;23.80;93.20
24426;DHT22;12611;44.446;26.000;2023-07-08T01:46:50;23.80;93.10
24426;DHT22;12611;44.446;26.000;2023-07-08T01:49:19;23.90;93.10
24426;DHT22;12611;44.446;26.000;2023-07-08T01:51:48;23.90;93.00
24426;DHT22;12611;44.446;26.000;2023-07-08T01:54:19;23.90;93.00
24426;DHT22;12611;44.446;26.000;2023-07-08T01:56:48;23.90;92.90
24426;DHT22;12611;44.446;26.000;2023-07-08T01:59:22;23.90;92.90
24426;DHT22;12611;44.446;26.000;2023-07-08T02:01:51;23.90;92.80
24426;DHT22;12611;44.446;26.000;2023-07-08T02:04:23;23.90;92.70
24426;DHT22;12611;44.446;26.000;2023-07-08T02:06:52;23.90;92.70
24426;DHT22;12611;44.446;26.000;2023-07-08T02:09:23;23.90;92.60
24426;DHT22;12611;44.446;26.000;2023-07-08T02:11:52;23.90;92.60
24426;DHT22;12611;44.446;26.000;2023-07-08T02:14:21;23.90;92.70
24426;DHT22;12611;44.446;26.000;2023-07-08T02:16:49;23.90;92.70
24426;DHT22;12611;44.446;26.000;2023-07-08T02:19:18;23.90;92.80
24426;DHT22;12611;44.446;26.000;2023-07-08T02:21:49;23.90;92.70
24426;DHT22;12611;44.446;26.000;2023-07-08T02:24:18;23.90;93.00
24426;DHT22;12611;44.446;26.000;2023-07-08T02:26:50;23.90;92.70
24426;DHT22;12611;44.446;26.000;2023-07-08T02:29:18;23.90;92.80
24426;DHT22;12611;44.446;26.000;2023-07-08T02:31:47;23.90;92.90
24426;DHT22;12611;44.446;26.000;2023-07-08T02:34:16;23.90;92.80
24426;DHT22;12611;44.446;26.000;2023-07-08T02:36:44;23.80;92.90
24426;DHT22;12611;44.446;26.000;2023-07-08T02:39:13;23.80;92.90
24426;DHT22;12611;44.446;26.000;2023-07-08T02:41:41;23.80;92.90
24426;DHT22;12611;44.446;26.000;2023-07-08T02:44:11;23.80;93.00
24426;DHT22;12611;44.446;26.000;2023-07-08T02:46:39;23.80;93.10
24426;DHT22;12611;44.446;26.000;2023-07-08T02:49:08;23.80;93.60
24426;DHT22;12611;44.446;26.000;2023-07-08T02:51:37;23.80;93.20
24426;DHT22;12611;44.446;26.000;2023-07-08T02:54:05;23.80;93.30
24426;DHT22;12611;44.446;26.000;2023-07-08T02:56:34;23.70;93.30
24426;DHT22;12611;44.446;26.000;2023-07-08T02:59:03;23.70;93.40
24426;DHT22;12611;44.446;26.000;2023-07-08T03:01:34;23.70;93.30
24426;DHT22;12611;44.446;26.000;2023-07-08T03:04:09;23.70;93.30
24426;DHT22;12611;44.446;26.000;2023-07-08T03:06:40;23.70;93.50
24426;DHT22;12611;44.446;26.000;2023-07-08T03:09:09;23.70;93.40
24426;DHT22;12611;44.446;26.000;2023-07-08T03:11:39;23.70;93.30
24426;DHT22;12611;44.446;26.000;2023-07-08T03:14:08;23.80;93.40
24426;DHT22;12611;44.446;26.000;2023-07-08T03:16:38;23.80;93.40
24426;DHT22;12611;44.446;26.000;2023-07-08T03:19:08;23.80;93.70
24426;DHT22;12611;44.446;26.000;2023-07-08T03:21:38;23.80;93.30
24426;DHT22;12611;44.446;26.000;2023-07-08T03:24:08;23.80;93.30
24426;DHT22;12611;44.446;26.000;2023-07-08T03:26:38;23.80;93.30
24426;DHT22;12611;44.446;26.000;2023-07-08T03:29:10;23.80;93.30
24426;DHT22;12611;44.446;26.000;2023-07-08T03:31:42;23.80;93.30
24426;DHT22;12611;44.446;26.000;2023-07-08T03:34:11;23.80;93.30
24426;DHT22;12611;44.446;26.000;2023-07-08T03:36:43;23.80;93.30
24426;DHT22;12611;44.446;26.000;2023-07-08T03:39:16;23.80;93.20
24426;DHT22;12611;44.446;26.000;2023-07-08T03:41:45;23.90;93.30
24426;DHT22;12611;44.446;26.000;2023-07-08T03:44:14;23.90;93.20
24426;DHT22;12611;44.446;26.000;2023-07-08T03:46:46;23.90;93.40
24426;DHT22;12611;44.446;26.000;2023-07-08T03:49:15;23.90;93.40
24426;DHT22;12611;44.446;26.000;2023-07-08T03:51:43;23.90;93.40
24426;DHT22;12611;44.446;26.000;2023-07-08T03:54:13;24.00;93.40
24426;DHT22;12611;44.446;26.000;2023-07-08T03:56:42;23.90;93.70
24426;DHT22;12611;44.446;26.000;2023-07-08T03:59:10;23.90;93.80
24426;DHT22;12611;44.446;26.000;2023-07-08T04:01:39;23.90;93.80
24426;DHT22;12611;44.446;26.000;2023-07-08T04:04:12;23.80;93.60
24426;DHT22;12611;44.446;26.000;2023-07-08T04:06:42;23.70;93.40
24426;DHT22;12611;44.446;26.000;2023-07-08T04:09:11;23.60;93.50
24426;DHT22;12611;44.446;26.000;2023-07-08T04:11:40;23.60;93.50
24426;DHT22;12611;44.446;26.000;2023-07-08T04:14:09;23.50;93.50
24426;DHT22;12611;44.446;26.000;2023-07-08T04:16:44;23.50;93.50
24426;DHT22;12611;44.446;26.000;2023-07-08T04:19:15;23.50;93.50
24426;DHT22;12611;44.446;26.000;2023-07-08T04:21:44;23.40;93.50
24426;DHT22;12611;44.446;26.000;2023-07-08T04:24:14;23.40;93.50
24426;DHT22;12611;44.446;26.000;2023-07-08T04:26:44;23.30;94.00
24426;DHT22;12611;44.446;26.000;2023-07-08T04:29:16;23.30;94.20
24426;DHT22;12611;44.446;26.000;2023-07-08T04:31:44;23.20;94.50
24426;DHT22;12611;44.446;26.000;2023-07-08T04:34:15;23.20;94.70
24426;DHT22;12611;44.446;26.000;2023-07-08T04:36:44;23.20;94.90
24426;DHT22;12611;44.446;26.000;2023-07-08T04:39:13;23.10;94.80
24426;DHT22;12611;44.446;26.000;2023-07-08T04:41:42;23.10;94.90
24426;DHT22;12611;44.446;26.000;2023-07-08T04:44:11;23.10;95.10
24426;DHT22;12611;44.446;26.000;2023-07-08T04:46:42;23.10;95.00
24426;DHT22;12611;44.446;26.000;2023-07-08T04:49:14;23.10;95.10
24426;DHT22;12611;44.446;26.000;2023-07-08T04:51:42;23.10;95.10
24426;DHT22;12611;44.446;26.000;2023-07-08T04:54:11;23.10;95.20
24426;DHT22;12611;44.446;26.000;2023-07-08T04:56:43;23.10;95.10
24426;DHT22;12611;44.446;26.000;2023-07-08T04:59:13;23.20;95.20
24426;DHT22;12611;44.446;26.000;2023-07-08T05:01:42;23.20;95.20
24426;DHT22;12611;44.446;26.000;2023-07-08T05:04:16;23.30;95.40
24426;DHT22;12611;44.446;26.000;2023-07-08T05:06:45;23.30;95.40
24426;DHT22;12611;44.446;26.000;2023-07-08T05:09:13;23.30;95.40
24426;DHT22;12611;44.446;26.000;2023-07-08T05:11:43;23.40;95.50
24426;DHT22;12611;44.446;26.000;2023-07-08T05:14:12;23.40;95.70
24426;DHT22;12611;44.446;26.000;2023-07-08T05:16:41;23.50;95.80
24426;DHT22;12611;44.446;26.000;2023-07-08T05:19:09;23.50;96.00
24426;DHT22;12611;44.446;26.000;2023-07-08T05:21:39;23.50;96.20
24426;DHT22;12611;44.446;26.000;2023-07-08T05:24:07;23.60;96.30
24426;DHT22;12611;44.446;26.000;2023-07-08T05:26:36;23.60;96.20
24426;DHT22;12611;44.446;26.000;2023-07-08T05:29:04;23.60;96.50
24426;DHT22;12611;44.446;26.000;2023-07-08T05:31:33;23.60;96.60
24426;DHT22;12611;44.446;26.000;2023-07-08T05:34:05;23.60;96.50
24426;DHT22;12611;44.446;26.000;2023-07-08T05:36:33;23.60;96.40
24426;DHT22;12611;44.446;26.000;2023-07-08T05:39:04;23.70;96.60
24426;DHT22;12611;44.446;26.000;2023-07-08T05:41:32;23.60;96.40
24426;DHT22;12611;44.446;26.000;2023-07-08T05:44:01;23.60;96.20
24426;DHT22;12611;44.446;26.000;2023-07-08T05:46:29;23.70;96.30
24426;DHT22;12611;44.446;26.000;2023-07-08T05:48:58;23.70;96.20
24426;DHT22;12611;44.446;26.000;2023-07-08T05:51:28;23.70;96.20
24426;DHT22;12611;44.446;26.000;2023-07-08T05:53:56;23.70;96.20
24426;DHT22;12611;44.446;26.000;2023-07-08T05:56:26;23.70;96.10
24426;DHT22;12611;44.446;26.000;2023-07-08T05:58:54;23.70;96.00
24426;DHT22;12611;44.446;26.000;2023-07-08T06:01:23;23.70;95.90
24426;DHT22;12611;44.446;26.000;2023-07-08T06:03:51;23.70;95.70
24426;DHT22;12611;44.446;26.000;2023-07-08T06:06:19;23.70;95.50
24426;DHT22;12611;44.446;26.000;2023-07-08T06:08:48;23.70;95.20
24426;DHT22;12611;44.446;26.000;2023-07-08T06:11:16;23.70;95.10
24426;DHT22;12611;44.446;26.000;2023-07-08T06:13:46;23.70;94.90
24426;DHT22;12611;44.446;26.000;2023-07-08T06:16:15;23.70;94.70
24426;DHT22;12611;44.446;26.000;2023-07-08T06:18:57;23.70;94.70
24426;DHT22;12611;44.446;26.000;2023-07-08T06:21:25;23.70;94.70
24426;DHT22;12611;44.446;26.000;2023-07-08T06:23:54;23.70;94.60
24426;DHT22;12611;44.446;26.000;2023-07-08T06:26:22;23.70;94.60
24426;DHT22;12611;44.446;26.000;2023-07-08T06:28:53;23.70;94.50
24426;DHT22;12611;44.446;26.000;2023-07-08T06:31:21;23.70;94.40
24426;DHT22;12611;44.446;26.000;2023-07-08T06:33:51;23.70;94.30
24426;DHT22;12611;44.446;26.000;2023-07-08T06:36:19;23.70;94.00
24426;DHT22;12611;44.446;26.000;2023-07-08T06:38:48;23.70;93.80
24426;DHT22;12611;44.446;26.000;2023-07-08T06:41:16;23.70;93.80
24426;DHT22;12611;44.446;26.000;2023-07-08T06:43:45;23.80;93.90
24426;DHT22;12611;44.446;26.000;2023-07-08T06:46:16;23.80;93.90
24426;DHT22;12611;44.446;26.000;2023-07-08T06:48:46;23.80;93.70
24426;DHT22;12611;44.446;26.000;2023-07-08T06:51:15;23.80;93.80
24426;DHT22;12611;44.446;26.000;2023-07-08T06:53:43;23.90;93.70
24426;DHT22;12611;44.446;26.000;2023-07-08T06:56:12;24.00;93.50
24426;DHT22;12611;44.446;26.000;2023-07-08T06:58:40;24.00;93.60
24426;DHT22;12611;44.446;26.000;2023-07-08T07:01:08;24.00;93.10
24426;DHT22;12611;44.446;26.000;2023-07-08T07:03:39;24.00;93.10
24426;DHT22;12611;44.446;26.000;2023-07-08T07:06:07;24.00;93.00
24426;DHT22;12611;44.446;26.000;2023-07-08T07:08:36;24.00;93.00
24426;DHT22;12611;44.446;26.000;2023-07-08T07:11:04;24.10;93.10
24426;DHT22;12611;44.446;26.000;2023-07-08T07:13:32;24.10;93.10
24426;DHT22;12611;44.446;26.000;2023-07-08T07:16:01;24.20;93.00
24426;DHT22;12611;44.446;26.000;2023-07-08T07:18:30;24.20;93.00
24426;DHT22;12611;44.446;26.000;2023-07-08T07:21:00;24.30;93.10
24426;DHT22;12611;44.446;26.000;2023-07-08T07:23:28;24.40;93.10
24426;DHT22;12611;44.446;26.000;2023-07-08T07:25:57;24.50;93.30
24426;DHT22;12611;44.446;26.000;2023-07-08T07:28:25;24.50;93.00
24426;DHT22;12611;44.446;26.000;2023-07-08T07:30:58;24.60;92.70
24426;DHT22;12611;44.446;26.000;2023-07-08T07:33:27;24.70;92.40
24426;DHT22;12611;44.446;26.000;2023-07-08T07:35:55;24.80;92.40
24426;DHT22;12611;44.446;26.000;2023-07-08T07:38:25;24.90;92.40
24426;DHT22;12611;44.446;26.000;2023-07-08T07:40:56;24.90;92.40
24426;DHT22;12611;44.446;26.000;2023-07-08T07:43:27;25.10;92.40
24426;DHT22;12611;44.446;26.000;2023-07-08T07:45:55;25.20;91.90
24426;DHT22;12611;44.446;26.000;2023-07-08T07:48:24;25.40;92.00
24426;DHT22;12611;44.446;26.000;2023-07-08T07:50:53;25.50;91.90
24426;DHT22;12611;44.446;26.000;2023-07-08T07:53:21;25.60;91.60
24426;DHT22;12611;44.446;26.000;2023-07-08T07:55:57;25.70;91.20
24426;DHT22;12611;44.446;26.000;2023-07-08T07:58:26;25.80;90.70
24426;DHT22;12611;44.446;26.000;2023-07-08T08:00:55;25.90;90.20
24426;DHT22;12611;44.446;26.000;2023-07-08T08:03:24;25.90;90.20
24426;DHT22;12611;44.446;26.000;2023-07-08T08:05:53;26.00;89.50
24426;DHT22;12611;44.446;26.000;2023-07-08T08:08:21;26.10;88.40
24426;DHT22;12611;44.446;26.000;2023-07-08T08:10:50;26.10;88.50
24426;DHT22;12611;44.446;26.000;2023-07-08T08:13:20;26.20;88.80
24426;DHT22;12611;44.446;26.000;2023-07-08T08:15:48;26.30;84.70
24426;DHT22;12611;44.446;26.000;2023-07-08T08:18:17;26.30;84.00
24426;DHT22;12611;44.446;26.000;2023-07-08T08:20:45;26.40;80.30
24426;DHT22;12611;44.446;26.000;2023-07-08T08:23:13;26.40;80.10
24426;DHT22;12611;44.446;26.000;2023-07-08T08:25:42;26.50;77.70
24426;DHT22;12611;44.446;26.000;2023-07-08T08:28:10;26.50;77.40
24426;DHT22;12611;44.446;26.000;2023-07-08T08:30:40;26.60;77.50
24426;DHT22;12611;44.446;26.000;2023-07-08T08:33:08;26.60;76.80
24426;DHT22;12611;44.446;26.000;2023-07-08T08:35:37;26.60;74.90
24426;DHT22;12611;44.446;26.000;2023-07-08T08:38:05;26.70;75.00
24426;DHT22;12611;44.446;26.000;2023-07-08T08:40:34;26.70;75.70
24426;DHT22;12611;44.446;26.000;2023-07-08T08:43:05;26.70;73.60
24426;DHT22;12611;44.446;26.000;2023-07-08T08:45:41;26.80;73.60
24426;DHT22;12611;44.446;26.000;2023-07-08T08:48:13;26.80;74.50
24426;DHT22;12611;44.446;26.000;2023-07-08T08:50:49;26.80;71.80
24426;DHT22;12611;44.446;26.000;2023-07-08T08:53:21;26.90;73.30
24426;DHT22;12611;44.446;26.000;2023-07-08T08:55:56;26.90;69.30
24426;DHT22;12611;44.446;26.000;2023-07-08T08:58:33;27.00;69.60
24426;DHT22;12611;44.446;26.000;2023-07-08T09:01:10;27.00;68.80
24426;DHT22;12611;44.446;26.000;2023-07-08T09:03:45;27.10;67.10
24426;DHT22;12611;44.446;26.000;2023-07-08T09:06:16;27.10;66.70
24426;DHT22;12611;44.446;26.000;2023-07-08T09:08:47;27.20;66.00
24426;DHT22;12611;44.446;26.000;2023-07-08T09:11:25;27.30;66.90
24426;DHT22;12611;44.446;26.000;2023-07-08T09:13:56;27.30;65.00
24426;DHT22;12611;44.446;26.000;2023-07-08T09:16:39;27.30;65.80
24426;DHT22;12611;44.446;26.000;2023-07-08T09:19:13;27.30;65.20
24426;DHT22;12611;44.446;26.000;2023-07-08T09:21:47;27.40;66.50
24426;DHT22;12611;44.446;26.000;2023-07-08T09:24:26;27.50;66.60
24426;DHT22;12611;44.446;26.000;2023-07-08T09:26:58;27.50;66.40
24426;DHT22;12611;44.446;26.000;2023-07-08T09:29:28;27.50;66.70
24426;DHT22;12611;44.446;26.000;2023-07-08T09:31:58;27.50;65.80
24426;DHT22;12611;44.446;26.000;2023-07-08T09:34:37;27.40;65.20
24426;DHT22;12611;44.446;26.000;2023-07-08T09:37:23;27.50;64.30
24426;DHT22;12611;44.446;26.000;2023-07-08T09:39:53;27.50;64.70
24426;DHT22;12611;44.446;26.000;2023-07-08T09:42:23;27.50;65.00
24426;DHT22;12611;44.446;26.000;2023-07-08T09:44:55;27.50;65.70
24426;DHT22;12611;44.446;26.000;2023-07-08T09:47:26;27.50;65.70
24426;DHT22;12611;44.446;26.000;2023-07-08T09:49:58;27.50;63.90
24426;DHT22;12611;44.446;26.000;2023-07-08T09:52:29;27.50;62.70
24426;DHT22;12611;44.446;26.000;2023-07-08T09:54:58;27.40;61.70
24426;DHT22;12611;44.446;26.000;2023-07-08T09:57:28;27.50;62.60
24426;DHT22;12611;44.446;26.000;2023-07-08T09:59:58;27.40;61.80
24426;DHT22;12611;44.446;26.000;2023-07-08T10:02:45;27.50;62.00
24426;DHT22;12611;44.446;26.000;2023-07-08T10:05:18;27.50;62.40
24426;DHT22;12611;44.446;26.000;2023-07-08T10:07:48;27.50;62.30
24426;DHT22;12611;44.446;26.000;2023-07-08T10:10:24;27.60;62.50
24426;DHT22;12611;44.446;26.000;2023-07-08T10:12:57;27.50;61.40
24426;DHT22;12611;44.446;26.000;2023-07-08T10:15:30;27.60;62.40
24426;DHT22;12611;44.446;26.000;2023-07-08T10:18:01;27.70;61.20
24426;DHT22;12611;44.446;26.000;2023-07-08T10:20:38;27.70;59.20
24426;DHT22;12611;44.446;26.000;2023-07-08T10:23:19;27.70;60.00
24426;DHT22;12611;44.446;26.000;2023-07-08T10:25:58;27.80;60.70
24426;DHT22;12611;44.446;26.000;2023-07-08T10:28:34;27.90;60.90
24426;DHT22;12611;44.446;26.000;2023-07-08T10:31:15;28.00;61.30
24426;DHT22;12611;44.446;26.000;2023-07-08T10:33:56;28.00;60.00
24426;DHT22;12611;44.446;26.000;2023-07-08T10:36:42;28.10;59.70
24426;DHT22;12611;44.446;26.000;2023-07-08T10:39:34;28.20;60.80
24426;DHT22;12611;44.446;26.000;2023-07-08T10:42:15;28.30;60.20
24426;DHT22;12611;44.446;26.000;2023-07-08T10:44:56;28.30;59.50
24426;DHT22;12611;44.446;26.000;2023-07-08T10:47:39;28.40;58.50
24426;DHT22;12611;44.446;26.000;2023-07-08T10:50:37;28.40;57.80
24426;DHT22;12611;44.446;26.000;2023-07-08T10:53:21;28.40;57.20
24426;DHT22;12611;44.446;26.000;2023-07-08T10:55:57;28.40;56.80
24426;DHT22;12611;44.446;26.000;2023-07-08T10:58:52;28.40;57.00
24426;DHT22;12611;44.446;26.000;2023-07-08T11:01:31;28.40;56.90
24426;DHT22;12611;44.446;26.000;2023-07-08T11:04:15;28.50;57.80
24426;DHT22;12611;44.446;26.000;2023-07-08T11:06:50;28.50;57.00
24426;DHT22;12611;44.446;26.000;2023-07-08T11:09:25;28.60;56.80
24426;DHT22;12611;44.446;26.000;2023-07-08T11:11:58;28.60;56.40
24426;DHT22;12611;44.446;26.000;2023-07-08T11:14:33;28.70;56.40
24426;DHT22;12611;44.446;26.000;2023-07-08T11:17:11;28.70;56.90
24426;DHT22;12611;44.446;26.000;2023-07-08T11:19:50;28.70;56.40
24426;DHT22;12611;44.446;26.000;2023-07-08T11:22:22;28.80;56.40
24426;DHT22;12611;44.446;26.000;2023-07-08T11:24:55;28.80;55.60
24426;DHT22;12611;44.446;26.000;2023-07-08T11:27:29;28.90;54.70
24426;DHT22;12611;44.446;26.000;2023-07-08T11:30:04;28.90;55.00
24426;DHT22;12611;44.446;26.000;2023-07-08T11:32:35;28.90;54.70
24426;DHT22;12611;44.446;26.000;2023-07-08T11:35:06;28.90;55.30
24426;DHT22;12611;44.446;26.000;2023-07-08T11:37:37;29.00;55.30
24426;DHT22;12611;44.446;26.000;2023-07-08T11:40:08;29.00;55.40
24426;DHT22;12611;44.446;26.000;2023-07-08T11:42:40;29.00;53.80
24426;DHT22;12611;44.446;26.000;2023-07-08T11:45:24;29.10;53.90
24426;DHT22;12611;44.446;26.000;2023-07-08T11:48:06;29.20;54.10
24426;DHT22;12611;44.446;26.000;2023-07-08T11:50:42;29.20;54.40
24426;DHT22;12611;44.446;26.000;2023-07-08T11:53:14;29.20;53.20
24426;DHT22;12611;44.446;26.000;2023-07-08T11:56:02;29.30;53.70
24426;DHT22;12611;44.446;26.000;2023-07-08T11:58:33;29.30;53.50
24426;DHT22;12611;44.446;26.000;2023-07-08T12:01:23;29.30;52.00
24426;DHT22;12611;44.446;26.000;2023-07-08T12:03:58;29.40;51.80
24426;DHT22;12611;44.446;26.000;2023-07-08T12:06:46;29.40;51.20
24426;DHT22;12611;44.446;26.000;2023-07-08T12:09:27;29.30;50.10
24426;DHT22;12611;44.446;26.000;2023-07-08T12:11:59;29.40;50.10
24426;DHT22;12611;44.446;26.000;2023-07-08T12:14:28;29.50;51.30
24426;DHT22;12611;44.446;26.000;2023-07-08T12:16:57;29.50;51.00
24426;DHT22;12611;44.446;26.000;2023-07-08T12:19:28;29.50;51.40
24426;DHT22;12611;44.446;26.000;2023-07-08T12:22:02;29.60;51.10
24426;DHT22;12611;44.446;26.000;2023-07-08T12:24:34;29.60;51.40
24426;DHT22;12611;44.446;26.000;2023-07-08T12:27:05;29.70;51.60
24426;DHT22;12611;44.446;26.000;2023-07-08T12:29:34;29.70;51.10
24426;DHT22;12611;44.446;26.000;2023-07-08T12:32:03;29.60;50.50
24426;DHT22;12611;44.446;26.000;2023-07-08T12:34:32;29.70;51.20
24426;DHT22;12611;44.446;26.000;2023-07-08T12:37:01;29.60;50.80
24426;DHT22;12611;44.446;26.000;2023-07-08T12:39:34;29.70;51.10
24426;DHT22;12611;44.446;26.000;2023-07-08T12:42:10;29.70;51.30
24426;DHT22;12611;44.446;26.000;2023-07-08T12:44:39;29.60;50.70
24426;DHT22;12611;44.446;26.000;2023-07-08T12:47:11;29.60;50.20
24426;DHT22;12611;44.446;26.000;2023-07-08T12:49:39;29.60;51.20
24426;DHT22;12611;44.446;26.000;2023-07-08T12:52:19;29.60;51.60
24426;DHT22;12611;44.446;26.000;2023-07-08T12:54:49;29.60;51.30
24426;DHT22;12611;44.446;26.000;2023-07-08T12:57:19;29.60;52.10
24426;DHT22;12611;44.446;26.000;2023-07-08T12:59:47;29.60;51.50
24426;DHT22;12611;44.446;26.000;2023-07-08T13:02:18;29.60;51.30
24426;DHT22;12611;44.446;26.000;2023-07-08T13:04:52;29.70;51.70
24426;DHT22;12611;44.446;26.000;2023-07-08T13:07:25;29.60;51.10
24426;DHT22;12611;44.446;26.000;2023-07-08T13:09:58;29.70;51.80
24426;DHT22;12611;44.446;26.000;2023-07-08T13:12:27;29.60;51.10
24426;DHT22;12611;44.446;26.000;2023-07-08T13:14:57;29.70;51.90
24426;DHT22;12611;44.446;26.000;2023-07-08T13:17:27;29.70;52.20
24426;DHT22;12611;44.446;26.000;2023-07-08T13:19:56;29.60;51.80
24426;DHT22;12611;44.446;26.000;2023-07-08T13:22:25;29.60;51.70
24426;DHT22;12611;44.446;26.000;2023-07-08T13:25:02;29.50;51.30
24426;DHT22;12611;44.446;26.000;2023-07-08T13:27:31;29.50;51.40
24426;DHT22;12611;44.446;26.000;2023-07-08T13:30:15;29.40;51.00
24426;DHT22;12611;44.446;26.000;2023-07-08T13:32:48;29.40;51.40
24426;DHT22;12611;44.446;26.000;2023-07-08T13:35:25;29.30;51.50
24426;DHT22;12611;44.446;26.000;2023-07-08T13:37:55;29.20;51.00
24426;DHT22;12611;44.446;26.000;2023-07-08T13:40:28;29.20;50.90
24426;DHT22;12611;44.446;26.000;2023-07-08T13:42:58;29.20;50.80
24426;DHT22;12611;44.446;26.000;2023-07-08T13:45:27;29.20;51.30
24426;DHT22;12611;44.446;26.000;2023-07-08T13:48:01;29.20;51.20
24426;DHT22;12611;44.446;26.000;2023-07-08T13:50:38;29.30;51.50
24426;DHT22;12611;44.446;26.000;2023-07-08T13:53:19;29.20;51.10
24426;DHT22;12611;44.446;26.000;2023-07-08T13:55:57;29.30;51.30
24426;DHT22;12611;44.446;26.000;2023-07-08T13:58:28;29.30;51.40
24426;DHT22;12611;44.446;26.000;2023-07-08T14:00:57;29.30;51.10
24426;DHT22;12611;44.446;26.000;2023-07-08T14:03:27;29.20;51.00
24426;DHT22;12611;44.446;26.000;2023-07-08T14:05:56;29.30;51.40
24426;DHT22;12611;44.446;26.000;2023-07-08T14:08:24;29.30;51.60
24426;DHT22;12611;44.446;26.000;2023-07-08T14:10:55;29.30;51.30
24426;DHT22;12611;44.446;26.000;2023-07-08T14:13:23;29.40;51.00
24426;DHT22;12611;44.446;26.000;2023-07-08T14:15:54;29.40;50.80
24426;DHT22;12611;44.446;26.000;2023-07-08T14:18:23;29.40;51.00
24426;DHT22;12611;44.446;26.000;2023-07-08T14:20:51;29.40;51.30
24426;DHT22;12611;44.446;26.000;2023-07-08T14:23:23;29.40;51.40
24426;DHT22;12611;44.446;26.000;2023-07-08T14:25:51;29.40;51.60
24426;DHT22;12611;44.446;26.000;2023-07-08T14:28:21;29.40;51.60
24426;DHT22;12611;44.446;26.000;2023-07-08T14:30:49;29.40;51.30
24426;DHT22;12611;44.446;26.000;2023-07-08T14:33:18;29.40;51.10
24426;DHT22;12611;44.446;26.000;2023-07-08T14:35:46;29.50;51.50
24426;DHT22;12611;44.446;26.000;2023-07-08T14:38:15;29.50;51.30
24426;DHT22;12611;44.446;26.000;2023-07-08T14:40:44;29.50;51.60
24426;DHT22;12611;44.446;26.000;2023-07-08T14:43:16;29.50;51.80
24426;DHT22;12611;44.446;26.000;2023-07-08T14:45:49;29.60;51.90
24426;DHT22;12611;44.446;26.000;2023-07-08T14:48:19;29.70;52.20
24426;DHT22;12611;44.446;26.000;2023-07-08T14:50:47;29.70;52.20
24426;DHT22;12611;44.446;26.000;2023-07-08T14:53:17;29.70;51.60
24426;DHT22;12611;44.446;26.000;2023-07-08T14:55:48;29.70;51.50
24426;DHT22;12611;44.446;26.000;2023-07-08T14:58:21;29.70;51.60
24426;DHT22;12611;44.446;26.000;2023-07-08T15:00:53;29.70;51.70
24426;DHT22;12611;44.446;26.000;2023-07-08T15:03:23;29.70;52.10
24426;DHT22;12611;44.446;26.000;2023-07-08T15:05:52;29.70;52.30
24426;DHT22;12611;44.446;26.000;2023-07-08T15:08:21;29.70;52.00
24426;DHT22;12611;44.446;26.000;2023-07-08T15:10:51;29.70;51.90
24426;DHT22;12611;44.446;26.000;2023-07-08T15:13:29;29.70;52.10
24426;DHT22;12611;44.446;26.000;2023-07-08T15:15:59;29.70;52.40
24426;DHT22;12611;44.446;26.000;2023-07-08T15:18:27;29.70;52.50
24426;DHT22;12611;44.446;26.000;2023-07-08T15:20:56;29.70;52.60
24426;DHT22;12611;44.446;26.000;2023-07-08T15:23:25;29.70;52.80
24426;DHT22;12611;44.446;26.000;2023-07-08T15:25:56;29.70;52.80
24426;DHT22;12611;44.446;26.000;2023-07-08T15:28:38;29.70;52.70
24426;DHT22;12611;44.446;26.000;2023-07-08T15:31:10;29.70;53.30
24426;DHT22;12611;44.446;26.000;2023-07-08T15:33:39;29.80;52.70
24426;DHT22;12611;44.446;26.000;2023-07-08T15:36:10;29.80;52.50
24426;DHT22;12611;44.446;26.000;2023-07-08T15:38:40;29.80;53.20
24426;DHT22;12611;44.446;26.000;2023-07-08T15:41:16;29.70;52.40